sensor_id;sensor_type;location;lat;lon;timestamp;P1;durP1;ratioP1;P2;durP2;ratioP2
27269;SDS011;14769;56.934;24.176;2023-02-26T03:04:39;2.78;;;0.88;;
27269;SDS011;14769;56.934;24.176;2023-02-26T03:05:43;2.67;;;0.70;;
27269;SDS011;14769;56.934;24.176;2023-02-26T03:06:44;1.17;;;0.65;;
27269;SDS011;14769;56.934;24.176;2023-02-26T03:07:55;1.92;;;0.70;;
27269;SDS011;14769;56.934;24.176;2023-02-26T03:09:01;1.77;;;0.70;;
27269;SDS011;14769;56.934;24.176;2023-02-26T03:10:04;2.40;;;0.80;;
27269;SDS011;14769;56.934;24.176;2023-02-26T03:11:07;1.23;;;0.60;;
27269;SDS011;14769;56.934;24.176;2023-02-26T03:12:09;1.65;;;0.68;;
27269;SDS011;14769;56.934;24.176;2023-02-26T03:13:15;1.52;;;0.73;;
27269;SDS011;14769;56.934;24.176;2023-02-26T03:14:22;4.70;;;1.05;;
27269;SDS011;14769;56.934;24.176;2023-02-26T03:15:32;0.93;;;0.80;;
27269;SDS011;14769;56.934;24.176;2023-02-26T03:20:31;0.93;;;0.70;;
27269;SDS011;14769;56.934;24.176;2023-02-26T03:21:49;2.35;;;0.75;;
27269;SDS011;14769;56.934;24.176;2023-02-26T03:23:56;4.60;;;0.80;;
27269;SDS011;14769;56.934;24.176;2023-02-26T03:25:11;1.08;;;0.90;;
27269;SDS011;14769;56.934;24.176;2023-02-26T03:26:20;1.88;;;0.98;;
27269;SDS011;14769;56.934;24.176;2023-02-26T03:27:34;1.38;;;0.73;;
27269;SDS011;14769;56.934;24.176;2023-02-26T03:28:51;1.00;;;0.60;;
27269;SDS011;14769;56.934;24.176;2023-02-26T03:31:21;1.25;;;0.82;;
27269;SDS011;14769;56.934;24.176;2023-02-26T03:32:34;0.82;;;0.82;;
27269;SDS011;14769;56.934;24.176;2023-02-26T03:33:56;3.13;;;0.90;;
27269;SDS011;14769;56.934;24.176;2023-02-26T03:35:37;2.25;;;1.33;;
27269;SDS011;14769;56.934;24.176;2023-02-26T03:37:40;2.72;;;1.05;;
27269;SDS011;14769;56.934;24.176;2023-02-26T03:40:14;1.63;;;0.80;;
27269;SDS011;14769;56.934;24.176;2023-02-26T03:41:41;3.70;;;0.98;;
27269;SDS011;14769;56.934;24.176;2023-02-26T03:43:02;1.43;;;0.80;;
27269;SDS011;14769;56.934;24.176;2023-02-26T03:44:32;2.70;;;1.10;;
27269;SDS011;14769;56.934;24.176;2023-02-26T03:45:36;4.70;;;1.33;;
27269;SDS011;14769;56.934;24.176;2023-02-26T03:46:43;3.08;;;1.30;;
27269;SDS011;14769;56.934;24.176;2023-02-26T03:47:49;1.60;;;1.05;;
27269;SDS011;14769;56.934;24.176;2023-02-26T03:48:54;2.95;;;1.33;;
27269;SDS011;14769;56.934;24.176;2023-02-26T03:50:14;1.98;;;1.10;;
27269;SDS011;14769;56.934;24.176;2023-02-26T03:51:20;2.80;;;0.93;;
27269;SDS011;14769;56.934;24.176;2023-02-26T03:52:24;3.22;;;1.20;;
27269;SDS011;14769;56.934;24.176;2023-02-26T03:53:30;3.22;;;1.20;;
27269;SDS011;14769;56.934;24.176;2023-02-26T03:54:36;2.40;;;1.20;;
27269;SDS011;14769;56.934;24.176;2023-02-26T03:55:47;2.45;;;1.17;;
27269;SDS011;14769;56.934;24.176;2023-02-26T03:57:01;1.20;;;1.10;;
27269;SDS011;14769;56.934;24.176;2023-02-26T03:58:03;2.05;;;1.27;;
27269;SDS011;14769;56.934;24.176;2023-02-26T03:59:05;2.05;;;1.23;;
27269;SDS011;14769;56.934;24.176;2023-02-26T04:00:07;2.90;;;0.98;;
27269;SDS011;14769;56.934;24.176;2023-02-26T04:01:14;1.95;;;1.20;;
27269;SDS011;14769;56.934;24.176;2023-02-26T04:24:24;3.05;;;1.70;;
27269;SDS011;14769;56.934;24.176;2023-02-26T04:53:18;3.05;;;1.95;;
27269;SDS011;14769;56.934;24.176;2023-02-26T04:54:20;4.25;;;1.27;;
27269;SDS011;14769;56.934;24.176;2023-02-26T04:55:22;2.65;;;1.45;;
27269;SDS011;14769;56.934;24.176;2023-02-26T04:56:24;1.60;;;1.20;;
27269;SDS011;14769;56.934;24.176;2023-02-26T04:57:27;2.90;;;1.55;;
27269;SDS011;14769;56.934;24.176;2023-02-26T04:58:29;2.40;;;1.30;;
27269;SDS011;14769;56.934;24.176;2023-02-26T04:59:31;2.10;;;1.13;;
27269;SDS011;14769;56.934;24.176;2023-02-26T05:00:33;3.13;;;1.40;;
27269;SDS011;14769;56.934;24.176;2023-02-26T05:01:35;3.60;;;1.33;;
27269;SDS011;14769;56.934;24.176;2023-02-26T05:02:37;2.88;;;1.35;;
27269;SDS011;14769;56.934;24.176;2023-02-26T05:03:41;2.15;;;1.40;;
27269;SDS011;14769;56.934;24.176;2023-02-26T05:04:43;2.60;;;1.50;;
27269;SDS011;14769;56.934;24.176;2023-02-26T05:05:45;1.73;;;1.40;;
27269;SDS011;14769;56.934;24.176;2023-02-26T05:06:47;2.58;;;1.33;;
27269;SDS011;14769;56.934;24.176;2023-02-26T05:07:49;4.13;;;1.80;;
27269;SDS011;14769;56.934;24.176;2023-02-26T05:08:54;2.30;;;1.50;;
27269;SDS011;14769;56.934;24.176;2023-02-26T05:09:55;3.05;;;1.50;;
27269;SDS011;14769;56.934;24.176;2023-02-26T05:10:57;2.83;;;1.73;;
27269;SDS011;14769;56.934;24.176;2023-02-26T05:11:59;3.05;;;1.58;;
27269;SDS011;14769;56.934;24.176;2023-02-26T05:13:01;4.50;;;1.40;;
27269;SDS011;14769;56.934;24.176;2023-02-26T05:14:03;2.58;;;1.33;;
27269;SDS011;14769;56.934;24.176;2023-02-26T05:15:05;3.42;;;1.80;;
27269;SDS011;14769;56.934;24.176;2023-02-26T05:16:08;2.78;;;1.55;;
27269;SDS011;14769;56.934;24.176;2023-02-26T05:17:10;2.42;;;1.30;;
27269;SDS011;14769;56.934;24.176;2023-02-26T05:18:12;2.30;;;1.35;;
27269;SDS011;14769;56.934;24.176;2023-02-26T05:19:14;2.25;;;1.50;;
27269;SDS011;14769;56.934;24.176;2023-02-26T05:20:17;2.40;;;1.42;;
27269;SDS011;14769;56.934;24.176;2023-02-26T05:21:18;2.90;;;1.33;;
27269;SDS011;14769;56.934;24.176;2023-02-26T05:22:23;1.40;;;1.27;;
27269;SDS011;14769;56.934;24.176;2023-02-26T05:23:25;1.90;;;1.40;;
27269;SDS011;14769;56.934;24.176;2023-02-26T05:24:27;1.67;;;1.20;;
27269;SDS011;14769;56.934;24.176;2023-02-26T05:25:29;2.42;;;1.50;;
27269;SDS011;14769;56.934;24.176;2023-02-26T05:26:31;2.13;;;1.25;;
27269;SDS011;14769;56.934;24.176;2023-02-26T05:27:33;2.13;;;1.67;;
27269;SDS011;14769;56.934;24.176;2023-02-26T05:28:35;2.30;;;1.45;;
27269;SDS011;14769;56.934;24.176;2023-02-26T05:29:38;3.85;;;1.42;;
27269;SDS011;14769;56.934;24.176;2023-02-26T05:30:42;3.58;;;1.75;;
27269;SDS011;14769;56.934;24.176;2023-02-26T05:31:44;2.00;;;1.42;;
27269;SDS011;14769;56.934;24.176;2023-02-26T05:32:46;2.80;;;1.30;;
27269;SDS011;14769;56.934;24.176;2023-02-26T05:33:48;2.88;;;1.60;;
27269;SDS011;14769;56.934;24.176;2023-02-26T05:34:50;2.03;;;1.35;;
27269;SDS011;14769;56.934;24.176;2023-02-26T05:35:52;1.83;;;1.25;;
27269;SDS011;14769;56.934;24.176;2023-02-26T05:36:54;3.30;;;1.40;;
27269;SDS011;14769;56.934;24.176;2023-02-26T05:37:56;2.45;;;1.60;;
27269;SDS011;14769;56.934;24.176;2023-02-26T05:38:58;1.85;;;1.23;;
27269;SDS011;14769;56.934;24.176;2023-02-26T05:40:00;3.22;;;1.75;;
27269;SDS011;14769;56.934;24.176;2023-02-26T05:41:03;4.07;;;2.10;;
27269;SDS011;14769;56.934;24.176;2023-02-26T05:42:05;2.22;;;1.40;;
27269;SDS011;14769;56.934;24.176;2023-02-26T05:43:07;2.47;;;1.50;;
27269;SDS011;14769;56.934;24.176;2023-02-26T05:44:09;2.55;;;1.20;;
27269;SDS011;14769;56.934;24.176;2023-02-26T05:45:11;2.80;;;2.10;;
27269;SDS011;14769;56.934;24.176;2023-02-26T05:46:13;2.10;;;1.55;;
27269;SDS011;14769;56.934;24.176;2023-02-26T05:47:15;4.50;;;1.88;;
27269;SDS011;14769;56.934;24.176;2023-02-26T05:48:17;3.25;;;1.73;;
27269;SDS011;14769;56.934;24.176;2023-02-26T05:49:19;3.83;;;1.48;;
27269;SDS011;14769;56.934;24.176;2023-02-26T05:50:21;3.25;;;1.67;;
27269;SDS011;14769;56.934;24.176;2023-02-26T05:51:23;3.38;;;1.75;;
27269;SDS011;14769;56.934;24.176;2023-02-26T05:52:25;1.75;;;1.48;;
27269;SDS011;14769;56.934;24.176;2023-02-26T05:53:27;2.83;;;1.85;;
27269;SDS011;14769;56.934;24.176;2023-02-26T05:54:29;5.25;;;1.75;;
27269;SDS011;14769;56.934;24.176;2023-02-26T05:55:31;3.17;;;1.80;;
27269;SDS011;14769;56.934;24.176;2023-02-26T05:56:33;2.97;;;1.90;;
27269;SDS011;14769;56.934;24.176;2023-02-26T05:57:35;4.07;;;2.00;;
27269;SDS011;14769;56.934;24.176;2023-02-26T05:58:37;3.47;;;1.85;;
27269;SDS011;14769;56.934;24.176;2023-02-26T05:59:39;4.40;;;1.85;;
27269;SDS011;14769;56.934;24.176;2023-02-26T06:00:41;3.38;;;2.00;;
27269;SDS011;14769;56.934;24.176;2023-02-26T06:01:43;2.67;;;1.90;;
27269;SDS011;14769;56.934;24.176;2023-02-26T06:02:45;3.05;;;1.75;;
27269;SDS011;14769;56.934;24.176;2023-02-26T06:03:47;6.43;;;2.00;;
27269;SDS011;14769;56.934;24.176;2023-02-26T06:04:49;6.35;;;2.10;;
27269;SDS011;14769;56.934;24.176;2023-02-26T06:05:51;3.58;;;2.03;;
27269;SDS011;14769;56.934;24.176;2023-02-26T06:06:53;2.53;;;1.80;;
27269;SDS011;14769;56.934;24.176;2023-02-26T06:07:55;4.47;;;1.70;;
27269;SDS011;14769;56.934;24.176;2023-02-26T06:08:57;3.55;;;1.55;;
27269;SDS011;14769;56.934;24.176;2023-02-26T06:10:01;3.70;;;1.70;;
27269;SDS011;14769;56.934;24.176;2023-02-26T06:11:04;3.03;;;1.55;;
27269;SDS011;14769;56.934;24.176;2023-02-26T06:12:06;2.75;;;1.95;;
27269;SDS011;14769;56.934;24.176;2023-02-26T06:13:08;2.72;;;1.63;;
27269;SDS011;14769;56.934;24.176;2023-02-26T06:14:10;2.80;;;1.70;;
27269;SDS011;14769;56.934;24.176;2023-02-26T06:15:12;3.33;;;1.80;;
27269;SDS011;14769;56.934;24.176;2023-02-26T06:16:14;2.58;;;1.40;;
27269;SDS011;14769;56.934;24.176;2023-02-26T06:17:19;2.08;;;1.70;;
27269;SDS011;14769;56.934;24.176;2023-02-26T06:18:21;3.13;;;1.85;;
27269;SDS011;14769;56.934;24.176;2023-02-26T06:19:26;1.90;;;1.30;;
27269;SDS011;14769;56.934;24.176;2023-02-26T06:20:28;2.45;;;2.00;;
27269;SDS011;14769;56.934;24.176;2023-02-26T06:21:30;2.85;;;1.50;;
27269;SDS011;14769;56.934;24.176;2023-02-26T06:22:32;2.72;;;1.50;;
27269;SDS011;14769;56.934;24.176;2023-02-26T06:23:34;3.53;;;1.67;;
27269;SDS011;14769;56.934;24.176;2023-02-26T06:24:36;3.42;;;1.70;;
27269;SDS011;14769;56.934;24.176;2023-02-26T06:25:38;4.45;;;1.88;;
27269;SDS011;14769;56.934;24.176;2023-02-26T06:26:41;4.05;;;2.00;;
27269;SDS011;14769;56.934;24.176;2023-02-26T06:27:43;3.47;;;1.33;;
27269;SDS011;14769;56.934;24.176;2023-02-26T06:28:48;4.78;;;1.67;;
27269;SDS011;14769;56.934;24.176;2023-02-26T06:30:03;2.30;;;1.60;;
27269;SDS011;14769;56.934;24.176;2023-02-26T06:31:05;3.67;;;1.65;;
27269;SDS011;14769;56.934;24.176;2023-02-26T06:32:07;3.20;;;1.80;;
27269;SDS011;14769;56.934;24.176;2023-02-26T06:33:10;2.72;;;1.88;;
27269;SDS011;14769;56.934;24.176;2023-02-26T06:34:12;2.38;;;1.52;;
27269;SDS011;14769;56.934;24.176;2023-02-26T06:35:14;2.28;;;1.60;;
27269;SDS011;14769;56.934;24.176;2023-02-26T06:36:16;3.08;;;1.75;;
27269;SDS011;14769;56.934;24.176;2023-02-26T06:37:17;2.38;;;1.48;;
27269;SDS011;14769;56.934;24.176;2023-02-26T06:38:19;2.92;;;1.73;;
27269;SDS011;14769;56.934;24.176;2023-02-26T06:39:21;2.50;;;1.52;;
27269;SDS011;14769;56.934;24.176;2023-02-26T06:40:23;2.13;;;1.38;;
27269;SDS011;14769;56.934;24.176;2023-02-26T06:41:25;1.80;;;1.50;;
27269;SDS011;14769;56.934;24.176;2023-02-26T06:42:27;2.20;;;1.50;;
27269;SDS011;14769;56.934;24.176;2023-02-26T06:43:29;2.13;;;1.45;;
27269;SDS011;14769;56.934;24.176;2023-02-26T06:44:31;2.30;;;1.42;;
27269;SDS011;14769;56.934;24.176;2023-02-26T06:45:33;4.18;;;2.10;;
27269;SDS011;14769;56.934;24.176;2023-02-26T06:46:35;2.42;;;1.40;;
27269;SDS011;14769;56.934;24.176;2023-02-26T06:47:38;2.60;;;1.67;;
27269;SDS011;14769;56.934;24.176;2023-02-26T06:48:40;4.20;;;1.67;;
27269;SDS011;14769;56.934;24.176;2023-02-26T06:49:42;2.35;;;1.35;;
27269;SDS011;14769;56.934;24.176;2023-02-26T06:50:44;2.22;;;1.40;;
27269;SDS011;14769;56.934;24.176;2023-02-26T06:51:46;2.63;;;1.48;;
27269;SDS011;14769;56.934;24.176;2023-02-26T06:52:48;3.50;;;1.83;;
27269;SDS011;14769;56.934;24.176;2023-02-26T06:53:49;2.70;;;1.73;;
27269;SDS011;14769;56.934;24.176;2023-02-26T06:54:51;3.03;;;1.65;;
27269;SDS011;14769;56.934;24.176;2023-02-26T06:55:53;2.35;;;1.48;;
27269;SDS011;14769;56.934;24.176;2023-02-26T06:56:55;2.50;;;1.70;;
27269;SDS011;14769;56.934;24.176;2023-02-26T06:57:58;2.63;;;1.42;;
27269;SDS011;14769;56.934;24.176;2023-02-26T06:59:00;3.33;;;1.70;;
27269;SDS011;14769;56.934;24.176;2023-02-26T07:00:06;4.13;;;2.00;;
27269;SDS011;14769;56.934;24.176;2023-02-26T07:01:09;3.53;;;1.55;;
27269;SDS011;14769;56.934;24.176;2023-02-26T07:02:14;4.93;;;2.03;;
27269;SDS011;14769;56.934;24.176;2023-02-26T07:03:18;3.72;;;1.73;;
27269;SDS011;14769;56.934;24.176;2023-02-26T07:04:21;3.88;;;1.98;;
27269;SDS011;14769;56.934;24.176;2023-02-26T07:05:23;3.22;;;1.60;;
27269;SDS011;14769;56.934;24.176;2023-02-26T07:06:25;3.03;;;1.83;;
27269;SDS011;14769;56.934;24.176;2023-02-26T07:07:28;2.10;;;1.73;;
27269;SDS011;14769;56.934;24.176;2023-02-26T07:08:30;4.35;;;1.70;;
27269;SDS011;14769;56.934;24.176;2023-02-26T07:09:32;4.93;;;1.83;;
27269;SDS011;14769;56.934;24.176;2023-02-26T07:10:34;3.05;;;1.58;;
27269;SDS011;14769;56.934;24.176;2023-02-26T07:11:37;3.17;;;1.70;;
27269;SDS011;14769;56.934;24.176;2023-02-26T07:12:39;5.22;;;1.80;;
27269;SDS011;14769;56.934;24.176;2023-02-26T07:13:41;3.10;;;1.70;;
27269;SDS011;14769;56.934;24.176;2023-02-26T07:14:43;2.40;;;1.77;;
27269;SDS011;14769;56.934;24.176;2023-02-26T07:15:46;4.22;;;2.00;;
27269;SDS011;14769;56.934;24.176;2023-02-26T07:16:48;3.83;;;1.95;;
27269;SDS011;14769;56.934;24.176;2023-02-26T07:17:50;3.13;;;1.77;;
27269;SDS011;14769;56.934;24.176;2023-02-26T07:18:52;3.42;;;1.75;;
27269;SDS011;14769;56.934;24.176;2023-02-26T07:19:54;3.22;;;2.00;;
27269;SDS011;14769;56.934;24.176;2023-02-26T07:20:56;3.67;;;1.45;;
27269;SDS011;14769;56.934;24.176;2023-02-26T07:21:58;2.63;;;1.88;;
27269;SDS011;14769;56.934;24.176;2023-02-26T07:22:59;3.17;;;1.73;;
27269;SDS011;14769;56.934;24.176;2023-02-26T07:24:02;4.72;;;2.03;;
27269;SDS011;14769;56.934;24.176;2023-02-26T07:25:04;5.05;;;2.10;;
27269;SDS011;14769;56.934;24.176;2023-02-26T07:26:07;3.63;;;2.10;;
27269;SDS011;14769;56.934;24.176;2023-02-26T07:27:09;3.17;;;1.98;;
27269;SDS011;14769;56.934;24.176;2023-02-26T07:28:11;3.53;;;1.95;;
27269;SDS011;14769;56.934;24.176;2023-02-26T07:29:13;2.58;;;2.13;;
27269;SDS011;14769;56.934;24.176;2023-02-26T07:30:15;2.90;;;1.70;;
27269;SDS011;14769;56.934;24.176;2023-02-26T07:31:17;3.35;;;2.05;;
27269;SDS011;14769;56.934;24.176;2023-02-26T07:32:20;3.85;;;2.03;;
27269;SDS011;14769;56.934;24.176;2023-02-26T07:33:23;4.20;;;2.13;;
27269;SDS011;14769;56.934;24.176;2023-02-26T07:34:26;4.97;;;1.92;;
27269;SDS011;14769;56.934;24.176;2023-02-26T07:35:28;4.95;;;2.05;;
27269;SDS011;14769;56.934;24.176;2023-02-26T07:36:30;5.45;;;2.40;;
27269;SDS011;14769;56.934;24.176;2023-02-26T07:37:32;3.63;;;2.08;;
27269;SDS011;14769;56.934;24.176;2023-02-26T07:38:34;2.30;;;1.70;;
27269;SDS011;14769;56.934;24.176;2023-02-26T07:39:36;3.22;;;1.80;;
27269;SDS011;14769;56.934;24.176;2023-02-26T07:40:38;2.90;;;2.05;;
27269;SDS011;14769;56.934;24.176;2023-02-26T07:41:40;5.30;;;2.38;;
27269;SDS011;14769;56.934;24.176;2023-02-26T07:42:43;4.63;;;2.40;;
27269;SDS011;14769;56.934;24.176;2023-02-26T07:43:45;3.50;;;2.17;;
27269;SDS011;14769;56.934;24.176;2023-02-26T07:44:47;5.88;;;2.17;;
27269;SDS011;14769;56.934;24.176;2023-02-26T07:45:50;3.25;;;2.22;;
27269;SDS011;14769;56.934;24.176;2023-02-26T07:46:52;4.13;;;2.33;;
27269;SDS011;14769;56.934;24.176;2023-02-26T07:47:54;3.53;;;1.90;;
27269;SDS011;14769;56.934;24.176;2023-02-26T07:48:56;3.20;;;1.85;;
27269;SDS011;14769;56.934;24.176;2023-02-26T07:49:58;3.60;;;2.13;;
27269;SDS011;14769;56.934;24.176;2023-02-26T07:51:00;1.98;;;1.70;;
27269;SDS011;14769;56.934;24.176;2023-02-26T07:52:02;2.97;;;1.80;;
27269;SDS011;14769;56.934;24.176;2023-02-26T07:53:04;3.45;;;1.95;;
27269;SDS011;14769;56.934;24.176;2023-02-26T07:54:06;4.28;;;2.17;;
27269;SDS011;14769;56.934;24.176;2023-02-26T07:55:08;6.45;;;2.15;;
27269;SDS011;14769;56.934;24.176;2023-02-26T07:56:11;2.60;;;1.83;;
27269;SDS011;14769;56.934;24.176;2023-02-26T07:57:13;5.40;;;2.45;;
27269;SDS011;14769;56.934;24.176;2023-02-26T07:58:15;3.92;;;2.00;;
27269;SDS011;14769;56.934;24.176;2023-02-26T07:59:17;3.85;;;2.00;;
27269;SDS011;14769;56.934;24.176;2023-02-26T08:00:21;2.65;;;1.70;;
27269;SDS011;14769;56.934;24.176;2023-02-26T08:01:23;5.28;;;2.25;;
27269;SDS011;14769;56.934;24.176;2023-02-26T08:02:25;7.57;;;2.40;;
27269;SDS011;14769;56.934;24.176;2023-02-26T08:03:27;3.78;;;2.20;;
27269;SDS011;14769;56.934;24.176;2023-02-26T08:04:29;4.07;;;2.13;;
27269;SDS011;14769;56.934;24.176;2023-02-26T08:05:33;3.30;;;1.92;;
27269;SDS011;14769;56.934;24.176;2023-02-26T08:06:35;3.30;;;2.22;;
27269;SDS011;14769;56.934;24.176;2023-02-26T08:07:37;4.47;;;2.25;;
27269;SDS011;14769;56.934;24.176;2023-02-26T08:08:39;4.75;;;2.25;;
27269;SDS011;14769;56.934;24.176;2023-02-26T08:09:41;4.70;;;2.30;;
27269;SDS011;14769;56.934;24.176;2023-02-26T08:10:43;4.35;;;2.13;;
27269;SDS011;14769;56.934;24.176;2023-02-26T08:11:45;3.92;;;2.35;;
27269;SDS011;14769;56.934;24.176;2023-02-26T08:12:48;3.50;;;2.30;;
27269;SDS011;14769;56.934;24.176;2023-02-26T08:13:50;5.65;;;2.47;;
27269;SDS011;14769;56.934;24.176;2023-02-26T08:14:52;3.20;;;2.00;;
27269;SDS011;14769;56.934;24.176;2023-02-26T08:15:54;2.88;;;2.20;;
27269;SDS011;14769;56.934;24.176;2023-02-26T08:16:56;3.70;;;2.08;;
27269;SDS011;14769;56.934;24.176;2023-02-26T08:17:58;4.82;;;2.63;;
27269;SDS011;14769;56.934;24.176;2023-02-26T08:18:59;3.40;;;2.30;;
27269;SDS011;14769;56.934;24.176;2023-02-26T08:20:02;4.07;;;2.53;;
27269;SDS011;14769;56.934;24.176;2023-02-26T08:21:05;4.35;;;2.55;;
27269;SDS011;14769;56.934;24.176;2023-02-26T08:22:08;6.25;;;2.35;;
27269;SDS011;14769;56.934;24.176;2023-02-26T08:23:09;4.28;;;2.40;;
27269;SDS011;14769;56.934;24.176;2023-02-26T08:24:12;4.30;;;2.55;;
27269;SDS011;14769;56.934;24.176;2023-02-26T08:25:14;2.80;;;1.83;;
27269;SDS011;14769;56.934;24.176;2023-02-26T08:26:16;3.88;;;2.10;;
27269;SDS011;14769;56.934;24.176;2023-02-26T08:27:19;5.18;;;2.40;;
27269;SDS011;14769;56.934;24.176;2023-02-26T08:28:21;4.13;;;2.20;;
27269;SDS011;14769;56.934;24.176;2023-02-26T08:29:23;6.38;;;2.55;;
27269;SDS011;14769;56.934;24.176;2023-02-26T08:30:25;5.38;;;2.25;;
27269;SDS011;14769;56.934;24.176;2023-02-26T08:31:27;4.82;;;2.30;;
27269;SDS011;14769;56.934;24.176;2023-02-26T08:32:29;7.10;;;2.70;;
27269;SDS011;14769;56.934;24.176;2023-02-26T08:33:31;3.80;;;2.35;;
27269;SDS011;14769;56.934;24.176;2023-02-26T08:34:34;5.20;;;2.42;;
27269;SDS011;14769;56.934;24.176;2023-02-26T08:35:37;3.33;;;2.10;;
27269;SDS011;14769;56.934;24.176;2023-02-26T08:36:39;4.60;;;2.17;;
27269;SDS011;14769;56.934;24.176;2023-02-26T08:37:41;4.03;;;2.45;;
27269;SDS011;14769;56.934;24.176;2023-02-26T08:38:43;4.75;;;2.67;;
27269;SDS011;14769;56.934;24.176;2023-02-26T08:39:45;5.05;;;2.20;;
27269;SDS011;14769;56.934;24.176;2023-02-26T08:40:50;4.35;;;2.13;;
27269;SDS011;14769;56.934;24.176;2023-02-26T08:41:53;3.22;;;2.10;;
27269;SDS011;14769;56.934;24.176;2023-02-26T08:42:54;3.63;;;2.13;;
27269;SDS011;14769;56.934;24.176;2023-02-26T08:44:00;4.65;;;1.92;;
27269;SDS011;14769;56.934;24.176;2023-02-26T08:45:02;4.47;;;2.28;;
27269;SDS011;14769;56.934;24.176;2023-02-26T08:46:05;3.45;;;1.90;;
27269;SDS011;14769;56.934;24.176;2023-02-26T08:47:07;3.78;;;2.22;;
27269;SDS011;14769;56.934;24.176;2023-02-26T08:48:09;4.78;;;2.38;;
27269;SDS011;14769;56.934;24.176;2023-02-26T08:49:11;2.45;;;1.67;;
27269;SDS011;14769;56.934;24.176;2023-02-26T08:50:13;2.35;;;1.77;;
27269;SDS011;14769;56.934;24.176;2023-02-26T08:51:16;4.47;;;2.20;;
27269;SDS011;14769;56.934;24.176;2023-02-26T08:52:19;4.18;;;2.17;;
27269;SDS011;14769;56.934;24.176;2023-02-26T08:53:21;3.17;;;1.88;;
27269;SDS011;14769;56.934;24.176;2023-02-26T08:54:23;3.08;;;1.85;;
27269;SDS011;14769;56.934;24.176;2023-02-26T08:55:25;4.70;;;2.10;;
27269;SDS011;14769;56.934;24.176;2023-02-26T08:56:27;3.55;;;2.00;;
27269;SDS011;14769;56.934;24.176;2023-02-26T08:57:30;6.40;;;2.20;;
27269;SDS011;14769;56.934;24.176;2023-02-26T08:58:32;3.33;;;2.13;;
27269;SDS011;14769;56.934;24.176;2023-02-26T08:59:34;3.92;;;1.90;;
27269;SDS011;14769;56.934;24.176;2023-02-26T09:00:36;3.92;;;2.33;;
27269;SDS011;14769;56.934;24.176;2023-02-26T09:01:38;3.28;;;1.88;;
27269;SDS011;14769;56.934;24.176;2023-02-26T09:02:40;2.45;;;1.70;;
27269;SDS011;14769;56.934;24.176;2023-02-26T09:03:52;2.65;;;1.88;;
27269;SDS011;14769;56.934;24.176;2023-02-26T09:04:54;3.30;;;2.00;;
27269;SDS011;14769;56.934;24.176;2023-02-26T09:05:56;3.97;;;2.83;;
27269;SDS011;14769;56.934;24.176;2023-02-26T09:06:58;2.42;;;1.77;;
27269;SDS011;14769;56.934;24.176;2023-02-26T09:08:00;5.43;;;2.08;;
27269;SDS011;14769;56.934;24.176;2023-02-26T09:09:02;4.60;;;2.03;;
27269;SDS011;14769;56.934;24.176;2023-02-26T09:10:05;4.78;;;2.30;;
27269;SDS011;14769;56.934;24.176;2023-02-26T09:11:07;3.55;;;1.90;;
27269;SDS011;14769;56.934;24.176;2023-02-26T09:12:12;4.55;;;2.08;;
27269;SDS011;14769;56.934;24.176;2023-02-26T09:13:14;4.57;;;1.90;;
27269;SDS011;14769;56.934;24.176;2023-02-26T09:14:16;4.32;;;1.95;;
27269;SDS011;14769;56.934;24.176;2023-02-26T09:15:18;5.22;;;2.10;;
27269;SDS011;14769;56.934;24.176;2023-02-26T09:16:21;2.15;;;1.55;;
27269;SDS011;14769;56.934;24.176;2023-02-26T09:17:23;4.78;;;1.88;;
27269;SDS011;14769;56.934;24.176;2023-02-26T09:18:26;2.88;;;2.08;;
27269;SDS011;14769;56.934;24.176;2023-02-26T09:19:30;4.32;;;2.10;;
27269;SDS011;14769;56.934;24.176;2023-02-26T09:20:33;2.47;;;1.40;;
27269;SDS011;14769;56.934;24.176;2023-02-26T09:21:41;3.92;;;1.77;;
27269;SDS011;14769;56.934;24.176;2023-02-26T09:22:45;3.38;;;2.15;;
27269;SDS011;14769;56.934;24.176;2023-02-26T09:23:47;4.30;;;1.70;;
27269;SDS011;14769;56.934;24.176;2023-02-26T09:24:49;1.95;;;1.42;;
27269;SDS011;14769;56.934;24.176;2023-02-26T09:25:52;2.63;;;1.60;;
27269;SDS011;14769;56.934;24.176;2023-02-26T09:26:55;3.53;;;1.90;;
27269;SDS011;14769;56.934;24.176;2023-02-26T09:27:59;2.65;;;1.65;;
27269;SDS011;14769;56.934;24.176;2023-02-26T09:29:05;4.05;;;1.70;;
27269;SDS011;14769;56.934;24.176;2023-02-26T09:30:07;3.72;;;1.85;;
27269;SDS011;14769;56.934;24.176;2023-02-26T09:31:10;4.78;;;2.22;;
27269;SDS011;14769;56.934;24.176;2023-02-26T09:32:12;2.72;;;1.65;;
27269;SDS011;14769;56.934;24.176;2023-02-26T09:33:14;2.65;;;1.60;;
27269;SDS011;14769;56.934;24.176;2023-02-26T09:34:16;2.20;;;1.50;;
27269;SDS011;14769;56.934;24.176;2023-02-26T09:35:19;2.00;;;1.20;;
27269;SDS011;14769;56.934;24.176;2023-02-26T09:36:22;1.77;;;1.40;;
27269;SDS011;14769;56.934;24.176;2023-02-26T09:37:25;4.45;;;2.28;;
27269;SDS011;14769;56.934;24.176;2023-02-26T09:38:27;4.28;;;1.70;;
27269;SDS011;14769;56.934;24.176;2023-02-26T09:39:29;2.83;;;1.40;;
27269;SDS011;14769;56.934;24.176;2023-02-26T09:41:52;3.10;;;1.33;;
27269;SDS011;14769;56.934;24.176;2023-02-26T09:44:22;2.78;;;1.50;;
27269;SDS011;14769;56.934;24.176;2023-02-26T09:45:30;4.00;;;1.20;;
27269;SDS011;14769;56.934;24.176;2023-02-26T09:47:57;5.53;;;1.40;;
27269;SDS011;14769;56.934;24.176;2023-02-26T09:53:34;2.63;;;1.25;;
27269;SDS011;14769;56.934;24.176;2023-02-26T09:54:48;2.60;;;1.40;;
27269;SDS011;14769;56.934;24.176;2023-02-26T09:55:54;1.45;;;1.00;;
27269;SDS011;14769;56.934;24.176;2023-02-26T09:57:02;3.28;;;1.20;;
27269;SDS011;14769;56.934;24.176;2023-02-26T09:58:10;4.50;;;1.40;;
27269;SDS011;14769;56.934;24.176;2023-02-26T09:59:19;1.70;;;1.27;;
27269;SDS011;14769;56.934;24.176;2023-02-26T10:04:59;7.40;;;1.75;;
27269;SDS011;14769;56.934;24.176;2023-02-26T10:07:34;7.25;;;2.15;;
27269;SDS011;14769;56.934;24.176;2023-02-26T10:12:59;3.05;;;1.50;;
27269;SDS011;14769;56.934;24.176;2023-02-26T10:14:13;3.35;;;1.70;;
27269;SDS011;14769;56.934;24.176;2023-02-26T10:15:36;2.58;;;1.52;;
27269;SDS011;14769;56.934;24.176;2023-02-26T10:16:44;4.00;;;1.58;;
27269;SDS011;14769;56.934;24.176;2023-02-26T10:38:29;3.15;;;1.58;;
27269;SDS011;14769;56.934;24.176;2023-02-26T10:39:41;1.67;;;1.35;;
27269;SDS011;14769;56.934;24.176;2023-02-26T11:54:27;3.20;;;1.40;;
